sensor_id;sensor_type;location;lat;lon;timestamp;pressure;altitude;pressure_sealevel;temperature;humidity
57668;BME280;43499;52.366;12.912;2023-04-07T00:00:17;101659.56;;;3.50;59.32
57668;BME280;43499;52.366;12.912;2023-04-07T00:01:18;101648.75;;;3.40;59.24
57668;BME280;43499;52.366;12.912;2023-04-07T00:02:21;101661.75;;;3.47;59.71
57668;BME280;43499;52.366;12.912;2023-04-07T00:03:22;101657.31;;;3.46;58.67
57668;BME280;43499;52.366;12.912;2023-04-07T00:04:23;101657.84;;;3.44;58.67
57668;BME280;43499;52.366;12.912;2023-04-07T00:05:24;101663.25;;;3.45;59.45
57668;BME280;43499;52.366;12.912;2023-04-07T00:06:25;101664.91;;;3.45;59.32
57668;BME280;43499;52.366;12.912;2023-04-07T00:07:27;101654.13;;;3.42;59.02
57668;BME280;43499;52.366;12.912;2023-04-07T00:08:28;101656.56;;;3.40;59.53
57668;BME280;43499;52.366;12.912;2023-04-07T00:09:29;101662.50;;;3.39;59.14
57668;BME280;43499;52.366;12.912;2023-04-07T00:10:30;101661.03;;;3.41;59.12
57668;BME280;43499;52.366;12.912;2023-04-07T00:11:31;101665.47;;;3.42;59.24
57668;BME280;43499;52.366;12.912;2023-04-07T00:12:33;101636.25;;;3.23;59.30
57668;BME280;43499;52.366;12.912;2023-04-07T00:13:34;101664.34;;;3.40;59.68
57668;BME280;43499;52.366;12.912;2023-04-07T00:14:35;101664.19;;;3.38;59.83
57668;BME280;43499;52.366;12.912;2023-04-07T00:15:36;101653.56;;;3.30;60.16
57668;BME280;43499;52.366;12.912;2023-04-07T00:16:37;101658.75;;;3.30;60.54
57668;BME280;43499;52.366;12.912;2023-04-07T00:17:38;101658.19;;;3.32;61.02
57668;BME280;43499;52.366;12.912;2023-04-07T00:18:39;101663.94;;;3.30;62.13
57668;BME280;43499;52.366;12.912;2023-04-07T00:19:40;101637.91;;;3.15;64.55
57668;BME280;43499;52.366;12.912;2023-04-07T00:20:41;101652.41;;;3.20;65.44
57668;BME280;43499;52.366;12.912;2023-04-07T00:21:42;101644.56;;;3.13;65.39
57668;BME280;43499;52.366;12.912;2023-04-07T00:22:43;101649.41;;;3.10;68.90
57668;BME280;43499;52.366;12.912;2023-04-07T00:23:44;101660.31;;;3.07;67.32
57668;BME280;43499;52.366;12.912;2023-04-07T00:24:46;101661.78;;;3.05;69.34
57668;BME280;43499;52.366;12.912;2023-04-07T00:25:47;101667.91;;;3.06;67.23
57668;BME280;43499;52.366;12.912;2023-04-07T00:26:49;101657.34;;;3.04;68.02
57668;BME280;43499;52.366;12.912;2023-04-07T00:27:50;101657.34;;;3.04;68.07
57668;BME280;43499;52.366;12.912;2023-04-07T00:28:51;101659.41;;;3.07;68.32
57668;BME280;43499;52.366;12.912;2023-04-07T00:29:52;101654.34;;;3.01;67.86
57668;BME280;43499;52.366;12.912;2023-04-07T00:30:55;101657.53;;;3.06;67.30
57668;BME280;43499;52.366;12.912;2023-04-07T00:31:56;101646.34;;;3.00;68.08
57668;BME280;43499;52.366;12.912;2023-04-07T00:32:57;101648.22;;;3.01;67.79
57668;BME280;43499;52.366;12.912;2023-04-07T00:33:58;101645.25;;;2.98;68.58
57668;BME280;43499;52.366;12.912;2023-04-07T00:35:00;101655.25;;;2.95;68.31
57668;BME280;43499;52.366;12.912;2023-04-07T00:36:01;101645.19;;;2.90;67.89
57668;BME280;43499;52.366;12.912;2023-04-07T00:37:02;101653.06;;;2.98;68.23
57668;BME280;43499;52.366;12.912;2023-04-07T00:38:03;101639.28;;;2.91;68.60
57668;BME280;43499;52.366;12.912;2023-04-07T00:39:04;101660.63;;;2.96;67.37
57668;BME280;43499;52.366;12.912;2023-04-07T00:40:06;101654.13;;;2.92;67.75
57668;BME280;43499;52.366;12.912;2023-04-07T00:41:07;101657.13;;;2.96;67.12
57668;BME280;43499;52.366;12.912;2023-04-07T00:42:08;101644.69;;;2.93;66.70
57668;BME280;43499;52.366;12.912;2023-04-07T00:43:09;101649.09;;;2.94;66.61
57668;BME280;43499;52.366;12.912;2023-04-07T00:44:10;101650.78;;;2.93;66.82
57668;BME280;43499;52.366;12.912;2023-04-07T00:45:11;101641.09;;;2.85;67.81
57668;BME280;43499;52.366;12.912;2023-04-07T00:46:12;101646.88;;;2.90;69.00
57668;BME280;43499;52.366;12.912;2023-04-07T00:47:14;101646.16;;;2.91;70.43
57668;BME280;43499;52.366;12.912;2023-04-07T00:48:15;101650.97;;;2.95;71.41
57668;BME280;43499;52.366;12.912;2023-04-07T00:49:16;101641.88;;;2.91;72.26
57668;BME280;43499;52.366;12.912;2023-04-07T00:50:20;101640.75;;;2.89;73.13
57668;BME280;43499;52.366;12.912;2023-04-07T00:51:21;101648.59;;;2.97;74.15
57668;BME280;43499;52.366;12.912;2023-04-07T00:52:23;101651.91;;;2.96;74.07
57668;BME280;43499;52.366;12.912;2023-04-07T00:53:28;101650.97;;;2.95;71.68
57668;BME280;43499;52.366;12.912;2023-04-07T00:54:29;101596.31;;;2.66;69.04
57668;BME280;43499;52.366;12.912;2023-04-07T00:55:30;101647.63;;;2.96;67.74
57668;BME280;43499;52.366;12.912;2023-04-07T00:56:31;101641.53;;;2.96;65.80
57668;BME280;43499;52.366;12.912;2023-04-07T00:57:32;101642.25;;;2.95;65.41
57668;BME280;43499;52.366;12.912;2023-04-07T00:58:33;101633.34;;;2.92;64.08
57668;BME280;43499;52.366;12.912;2023-04-07T00:59:35;101636.34;;;2.96;62.53
57668;BME280;43499;52.366;12.912;2023-04-07T01:00:41;101637.31;;;3.03;62.64
57668;BME280;43499;52.366;12.912;2023-04-07T01:01:54;101635.81;;;3.05;62.11
57668;BME280;43499;52.366;12.912;2023-04-07T01:03:01;101642.88;;;3.06;62.13
57668;BME280;43499;52.366;12.912;2023-04-07T01:04:17;101640.25;;;3.06;62.16
57668;BME280;43499;52.366;12.912;2023-04-07T01:05:25;101639.34;;;3.06;61.83
57668;BME280;43499;52.366;12.912;2023-04-07T01:06:32;101630.59;;;2.98;61.38
57668;BME280;43499;52.366;12.912;2023-04-07T01:07:50;101624.25;;;2.96;61.75
57668;BME280;43499;52.366;12.912;2023-04-07T01:09:06;101609.56;;;2.89;61.74
57668;BME280;43499;52.366;12.912;2023-04-07T01:10:15;101624.25;;;2.96;61.85
57668;BME280;43499;52.366;12.912;2023-04-07T01:11:34;101633.19;;;2.98;60.99
57668;BME280;43499;52.366;12.912;2023-04-07T01:13:00;101619.59;;;2.86;61.62
57668;BME280;43499;52.366;12.912;2023-04-07T01:14:03;101628.88;;;2.91;61.56
57668;BME280;43499;52.366;12.912;2023-04-07T01:15:12;101636.69;;;2.91;62.20
57668;BME280;43499;52.366;12.912;2023-04-07T01:16:28;101614.75;;;2.82;62.40
57668;BME280;43499;52.366;12.912;2023-04-07T01:17:31;101632.78;;;2.88;62.54
57668;BME280;43499;52.366;12.912;2023-04-07T01:18:35;101631.84;;;2.87;63.10
57668;BME280;43499;52.366;12.912;2023-04-07T01:19:48;101628.88;;;2.84;63.18
57668;BME280;43499;52.366;12.912;2023-04-07T01:20:55;101620.09;;;2.76;64.40
57668;BME280;43499;52.366;12.912;2023-04-07T01:22:02;101626.59;;;2.80;65.84
57668;BME280;43499;52.366;12.912;2023-04-07T01:23:06;101627.34;;;2.79;65.56
57668;BME280;43499;52.366;12.912;2023-04-07T01:24:38;101620.06;;;2.69;64.98
57668;BME280;43499;52.366;12.912;2023-04-07T01:26:20;101632.50;;;2.72;65.67
57668;BME280;43499;52.366;12.912;2023-04-07T01:27:35;101632.47;;;2.65;65.28
57668;BME280;43499;52.366;12.912;2023-04-07T01:30:17;101626.72;;;2.67;65.85
57668;BME280;43499;52.366;12.912;2023-04-07T01:31:19;101632.84;;;2.68;65.90
57668;BME280;43499;52.366;12.912;2023-04-07T01:32:20;101603.41;;;2.47;66.57
57668;BME280;43499;52.366;12.912;2023-04-07T01:33:24;101620.00;;;2.62;65.88
57668;BME280;43499;52.366;12.912;2023-04-07T01:34:28;101625.75;;;2.59;65.48
57668;BME280;43499;52.366;12.912;2023-04-07T01:35:33;101630.59;;;2.64;65.12
57668;BME280;43499;52.366;12.912;2023-04-07T01:36:34;101618.69;;;2.58;65.13
57668;BME280;43499;52.366;12.912;2023-04-07T01:37:36;101625.41;;;2.64;65.43
57668;BME280;43499;52.366;12.912;2023-04-07T01:38:38;101616.66;;;2.56;65.03
57668;BME280;43499;52.366;12.912;2023-04-07T01:39:40;101612.19;;;2.55;65.36
57668;BME280;43499;52.366;12.912;2023-04-07T01:40:42;101615.13;;;2.51;64.92
57668;BME280;43499;52.366;12.912;2023-04-07T01:41:44;101610.50;;;2.55;65.23
57668;BME280;43499;52.366;12.912;2023-04-07T01:42:47;101608.28;;;2.51;65.75
57668;BME280;43499;52.366;12.912;2023-04-07T01:43:48;101608.31;;;2.58;64.60
57668;BME280;43499;52.366;12.912;2023-04-07T01:44:51;101609.22;;;2.59;65.48
57668;BME280;43499;52.366;12.912;2023-04-07T01:45:53;101612.59;;;2.58;66.20
57668;BME280;43499;52.366;12.912;2023-04-07T01:46:57;101609.78;;;2.56;65.32
57668;BME280;43499;52.366;12.912;2023-04-07T01:47:59;101605.13;;;2.54;65.45
57668;BME280;43499;52.366;12.912;2023-04-07T01:49:01;101611.97;;;2.53;65.87
57668;BME280;43499;52.366;12.912;2023-04-07T01:50:04;101613.66;;;2.53;65.31
57668;BME280;43499;52.366;12.912;2023-04-07T01:51:07;101616.44;;;2.54;65.85
57668;BME280;43499;52.366;12.912;2023-04-07T01:52:11;101612.59;;;2.58;64.71
57668;BME280;43499;52.366;12.912;2023-04-07T01:53:13;101602.34;;;2.52;63.94
57668;BME280;43499;52.366;12.912;2023-04-07T01:54:16;101611.25;;;2.54;64.07
57668;BME280;43499;52.366;12.912;2023-04-07T01:55:17;101608.47;;;2.53;64.17
57668;BME280;43499;52.366;12.912;2023-04-07T01:56:28;101617.16;;;2.53;63.81
57668;BME280;43499;52.366;12.912;2023-04-07T01:57:32;101615.50;;;2.54;64.09
57668;BME280;43499;52.366;12.912;2023-04-07T01:58:37;101608.78;;;2.49;64.07
57668;BME280;43499;52.366;12.912;2023-04-07T01:59:41;101610.47;;;2.48;63.60
57668;BME280;43499;52.366;12.912;2023-04-07T02:00:43;101606.19;;;2.49;63.57
57668;BME280;43499;52.366;12.912;2023-04-07T02:01:49;101616.97;;;2.52;64.47
57668;BME280;43499;52.366;12.912;2023-04-07T02:02:54;101614.53;;;2.46;64.20
57668;BME280;43499;52.366;12.912;2023-04-07T02:04:22;101604.44;;;2.35;64.40
57668;BME280;43499;52.366;12.912;2023-04-07T02:05:26;101626.00;;;2.41;64.76
57668;BME280;43499;52.366;12.912;2023-04-07T02:06:41;101620.19;;;2.36;64.40
57668;BME280;43499;52.366;12.912;2023-04-07T02:07:49;101614.81;;;2.35;64.91
57668;BME280;43499;52.366;12.912;2023-04-07T02:08:56;101617.25;;;2.33;64.84
57668;BME280;43499;52.366;12.912;2023-04-07T02:10:01;101617.97;;;2.32;65.47
57668;BME280;43499;52.366;12.912;2023-04-07T02:11:04;101615.31;;;2.25;65.79
57668;BME280;43499;52.366;12.912;2023-04-07T02:12:11;101616.84;;;2.30;65.70
57668;BME280;43499;52.366;12.912;2023-04-07T02:13:19;101624.75;;;2.24;66.04
57668;BME280;43499;52.366;12.912;2023-04-07T02:14:22;101619.00;;;2.20;67.15
57668;BME280;43499;52.366;12.912;2023-04-07T02:15:42;101588.03;;;1.94;67.49
57668;BME280;43499;52.366;12.912;2023-04-07T02:16:45;101614.22;;;2.03;67.52
57668;BME280;43499;52.366;12.912;2023-04-07T02:17:50;101620.88;;;2.00;68.39
57668;BME280;43499;52.366;12.912;2023-04-07T02:18:51;101608.78;;;1.94;68.44
57668;BME280;43499;52.366;12.912;2023-04-07T02:19:54;101607.84;;;1.93;68.28
57668;BME280;43499;52.366;12.912;2023-04-07T02:20:58;101612.50;;;1.96;68.47
57668;BME280;43499;52.366;12.912;2023-04-07T02:22:04;101613.75;;;1.92;68.54
57668;BME280;43499;52.366;12.912;2023-04-07T02:23:08;101619.00;;;1.99;68.53
57668;BME280;43499;52.366;12.912;2023-04-07T02:24:11;101606.41;;;1.95;68.85
57668;BME280;43499;52.366;12.912;2023-04-07T02:26:23;101614.53;;;1.98;69.20
57668;BME280;43499;52.366;12.912;2023-04-07T02:27:24;101611.34;;;1.94;68.95
57668;BME280;43499;52.366;12.912;2023-04-07T02:28:26;101612.09;;;1.93;68.98
57668;BME280;43499;52.366;12.912;2023-04-07T02:29:27;101596.31;;;1.84;67.86
57668;BME280;43499;52.366;12.912;2023-04-07T02:30:29;101602.25;;;1.90;68.50
57668;BME280;43499;52.366;12.912;2023-04-07T02:31:30;101608.22;;;1.96;68.55
57668;BME280;43499;52.366;12.912;2023-04-07T02:32:31;101591.88;;;1.90;68.73
57668;BME280;43499;52.366;12.912;2023-04-07T02:33:32;101596.75;;;1.94;68.88
57668;BME280;43499;52.366;12.912;2023-04-07T02:34:34;101603.44;;;1.99;68.81
57668;BME280;43499;52.366;12.912;2023-04-07T02:35:35;101582.06;;;1.88;68.95
57668;BME280;43499;52.366;12.912;2023-04-07T02:36:36;101597.47;;;1.93;69.48
57668;BME280;43499;52.366;12.912;2023-04-07T02:37:41;101607.91;;;2.00;69.26
57668;BME280;43499;52.366;12.912;2023-04-07T02:38:42;101600.84;;;1.99;68.97
57668;BME280;43499;52.366;12.912;2023-04-07T02:39:43;101589.16;;;1.96;69.69
57668;BME280;43499;52.366;12.912;2023-04-07T02:40:45;101606.41;;;1.95;71.38
57668;BME280;43499;52.366;12.912;2023-04-07T02:41:46;101600.06;;;1.93;70.97
57668;BME280;43499;52.366;12.912;2023-04-07T02:42:47;101601.53;;;1.91;71.40
57668;BME280;43499;52.366;12.912;2023-04-07T02:43:48;101606.19;;;1.94;72.42
57668;BME280;43499;52.366;12.912;2023-04-07T02:44:50;101595.94;;;1.88;72.17
57668;BME280;43499;52.366;12.912;2023-04-07T02:45:51;101603.13;;;1.83;73.37
57668;BME280;43499;52.366;12.912;2023-04-07T02:46:52;101592.47;;;1.75;72.93
57668;BME280;43499;52.366;12.912;2023-04-07T02:47:53;101607.31;;;1.76;72.79
57668;BME280;43499;52.366;12.912;2023-04-07T02:48:54;101603.94;;;1.69;72.60
57668;BME280;43499;52.366;12.912;2023-04-07T02:49:55;101595.75;;;1.66;72.46
57668;BME280;43499;52.366;12.912;2023-04-07T02:50:57;101607.03;;;1.67;73.29
57668;BME280;43499;52.366;12.912;2023-04-07T02:51:58;101606.84;;;1.65;72.75
57668;BME280;43499;52.366;12.912;2023-04-07T02:52:59;101601.66;;;1.65;73.60
57668;BME280;43499;52.366;12.912;2023-04-07T02:54:00;101607.16;;;1.61;73.78
57668;BME280;43499;52.366;12.912;2023-04-07T02:55:01;101592.28;;;1.53;73.37
57668;BME280;43499;52.366;12.912;2023-04-07T02:56:03;101597.34;;;1.59;74.61
57668;BME280;43499;52.366;12.912;2023-04-07T02:57:04;101604.56;;;1.61;73.95
57668;BME280;43499;52.366;12.912;2023-04-07T02:58:05;101609.16;;;1.57;74.49
57668;BME280;43499;52.366;12.912;2023-04-07T02:59:12;101587.97;;;1.46;74.72
57668;BME280;43499;52.366;12.912;2023-04-07T03:00:16;101585.00;;;1.43;74.67
57668;BME280;43499;52.366;12.912;2023-04-07T03:01:28;101595.59;;;1.52;74.20
57668;BME280;43499;52.366;12.912;2023-04-07T03:02:29;101604.56;;;1.61;73.93
57668;BME280;43499;52.366;12.912;2023-04-07T03:03:30;101606.25;;;1.61;73.01
57668;BME280;43499;52.366;12.912;2023-04-07T03:04:43;101591.25;;;1.58;74.76
57668;BME280;43499;52.366;12.912;2023-04-07T03:05:44;101592.28;;;1.53;75.38
57668;BME280;43499;52.366;12.912;2023-04-07T03:06:46;101592.09;;;1.51;74.39
57668;BME280;43499;52.366;12.912;2023-04-07T03:07:49;101599.13;;;1.52;74.67
57668;BME280;43499;52.366;12.912;2023-04-07T03:08:50;101609.50;;;1.52;74.99
57668;BME280;43499;52.366;12.912;2023-04-07T03:09:51;101604.50;;;1.54;75.02
57668;BME280;43499;52.366;12.912;2023-04-07T03:10:53;101605.97;;;1.52;74.93
57668;BME280;43499;52.366;12.912;2023-04-07T03:11:59;101598.19;;;1.52;74.67
57668;BME280;43499;52.366;12.912;2023-04-07T03:13:06;101598.31;;;1.46;74.99
57668;BME280;43499;52.366;12.912;2023-04-07T03:14:08;101598.19;;;1.52;75.25
57668;BME280;43499;52.366;12.912;2023-04-07T03:15:16;101604.09;;;1.51;74.87
57668;BME280;43499;52.366;12.912;2023-04-07T03:16:20;101596.06;;;1.42;74.61
57668;BME280;43499;52.366;12.912;2023-04-07T03:17:33;101595.97;;;1.35;74.98
57668;BME280;43499;52.366;12.912;2023-04-07T03:18:34;101578.69;;;1.28;74.60
57668;BME280;43499;52.366;12.912;2023-04-07T03:19:36;101601.75;;;1.39;74.49
57668;BME280;43499;52.366;12.912;2023-04-07T03:20:37;101596.19;;;1.36;74.85
57668;BME280;43499;52.366;12.912;2023-04-07T03:21:43;101585.56;;;1.28;74.37
57668;BME280;43499;52.366;12.912;2023-04-07T03:22:44;101597.31;;;1.38;74.51
57668;BME280;43499;52.366;12.912;2023-04-07T03:23:53;101598.06;;;1.37;74.56
57668;BME280;43499;52.366;12.912;2023-04-07T03:24:54;101599.53;;;1.35;74.55
57668;BME280;43499;52.366;12.912;2023-04-07T03:25:57;101591.03;;;1.36;74.43
57668;BME280;43499;52.366;12.912;2023-04-07T03:27:01;101603.03;;;1.36;73.97
57668;BME280;43499;52.366;12.912;2023-04-07T03:28:19;101590.81;;;1.35;75.16
57668;BME280;43499;52.366;12.912;2023-04-07T03:29:20;101594.22;;;1.41;74.37
57668;BME280;43499;52.366;12.912;2023-04-07T03:30:22;101603.84;;;1.42;74.90
57668;BME280;43499;52.366;12.912;2023-04-07T03:31:23;101590.69;;;1.41;74.43
57668;BME280;43499;52.366;12.912;2023-04-07T03:32:26;101574.66;;;1.30;73.96
57668;BME280;43499;52.366;12.912;2023-04-07T03:33:27;101594.22;;;1.41;74.93
57668;BME280;43499;52.366;12.912;2023-04-07T03:34:29;101595.66;;;1.39;74.96
57668;BME280;43499;52.366;12.912;2023-04-07T03:35:32;101580.38;;;1.28;74.86
57668;BME280;43499;52.366;12.912;2023-04-07T03:36:33;101593.75;;;1.31;74.56
57668;BME280;43499;52.366;12.912;2023-04-07T03:37:37;101591.53;;;1.34;75.87
57668;BME280;43499;52.366;12.912;2023-04-07T03:38:41;101576.03;;;1.21;75.53
57668;BME280;43499;52.366;12.912;2023-04-07T03:39:42;101586.47;;;1.28;76.06
57668;BME280;43499;52.366;12.912;2023-04-07T03:40:58;101597.78;;;1.29;75.73
57668;BME280;43499;52.366;12.912;2023-04-07T03:41:59;101596.81;;;1.28;75.79
57668;BME280;43499;52.366;12.912;2023-04-07T03:43:04;101589.41;;;1.24;75.62
57668;BME280;43499;52.366;12.912;2023-04-07T03:44:05;101587.66;;;1.17;76.20
57668;BME280;43499;52.366;12.912;2023-04-07T03:45:10;101598.50;;;1.28;76.15
57668;BME280;43499;52.366;12.912;2023-04-07T03:46:15;101596.31;;;1.31;76.33
57668;BME280;43499;52.366;12.912;2023-04-07T03:47:17;101585.13;;;1.25;75.23
57668;BME280;43499;52.366;12.912;2023-04-07T03:48:23;101597.56;;;1.27;76.29
57668;BME280;43499;52.366;12.912;2023-04-07T03:49:40;101594.59;;;1.24;76.35
57668;BME280;43499;52.366;12.912;2023-04-07T03:50:41;101593.25;;;1.20;76.36
57668;BME280;43499;52.366;12.912;2023-04-07T03:51:48;101599.34;;;1.21;75.92
57668;BME280;43499;52.366;12.912;2023-04-07T03:52:52;101596.56;;;1.19;76.33
57668;BME280;43499;52.366;12.912;2023-04-07T03:53:58;101593.16;;;1.13;76.90
57668;BME280;43499;52.366;12.912;2023-04-07T03:55:07;101585.91;;;1.11;77.02
57668;BME280;43499;52.366;12.912;2023-04-07T03:56:09;101596.47;;;1.12;76.96
57668;BME280;43499;52.366;12.912;2023-04-07T03:57:22;101589.97;;;1.08;76.84
57668;BME280;43499;52.366;12.912;2023-04-07T03:58:24;101600.19;;;1.14;76.95
57668;BME280;43499;52.366;12.912;2023-04-07T03:59:25;101591.63;;;1.08;76.99
57668;BME280;43499;52.366;12.912;2023-04-07T04:00:32;101595.22;;;1.16;77.04
57668;BME280;43499;52.366;12.912;2023-04-07T04:01:40;101586.44;;;1.08;77.02
57668;BME280;43499;52.366;12.912;2023-04-07T04:02:46;101588.81;;;1.06;76.82
57668;BME280;43499;52.366;12.912;2023-04-07T04:03:52;101591.63;;;1.08;77.17
57668;BME280;43499;52.366;12.912;2023-04-07T04:05:04;101593.88;;;1.12;76.80
57668;BME280;43499;52.366;12.912;2023-04-07T04:06:06;101595.75;;;1.13;77.08
57668;BME280;43499;52.366;12.912;2023-04-07T04:07:07;101589.22;;;1.10;77.35
57668;BME280;43499;52.366;12.912;2023-04-07T04:08:19;101605.38;;;1.14;76.71
57668;BME280;43499;52.366;12.912;2023-04-07T04:09:20;101591.50;;;1.14;77.12
57668;BME280;43499;52.366;12.912;2023-04-07T04:10:22;101579.91;;;1.04;77.21
57668;BME280;43499;52.366;12.912;2023-04-07T04:11:26;101601.88;;;1.14;76.87
57668;BME280;43499;52.366;12.912;2023-04-07T04:12:32;101585.09;;;1.04;77.33
57668;BME280;43499;52.366;12.912;2023-04-07T04:13:39;101595.97;;;1.02;77.51
57668;BME280;43499;52.366;12.912;2023-04-07T04:14:40;101594.34;;;1.02;77.85
57668;BME280;43499;52.366;12.912;2023-04-07T04:15:43;101597.84;;;1.03;77.65
57668;BME280;43499;52.366;12.912;2023-04-07T04:16:48;101598.38;;;1.00;78.12
57668;BME280;43499;52.366;12.912;2023-04-07T04:17:59;101591.34;;;0.99;78.07
57668;BME280;43499;52.366;12.912;2023-04-07T04:19:01;101585.19;;;0.99;77.36
57668;BME280;43499;52.366;12.912;2023-04-07T04:20:05;101608.63;;;1.06;77.63
57668;BME280;43499;52.366;12.912;2023-04-07T04:21:21;101601.16;;;1.02;78.15
57668;BME280;43499;52.366;12.912;2023-04-07T04:22:22;101592.06;;;0.98;78.11
57668;BME280;43499;52.366;12.912;2023-04-07T04:23:27;101589.78;;;0.94;78.11
57668;BME280;43499;52.366;12.912;2023-04-07T04:24:29;101605.72;;;0.97;78.29
57668;BME280;43499;52.366;12.912;2023-04-07T04:25:35;101602.59;;;1.00;78.52
57668;BME280;43499;52.366;12.912;2023-04-07T04:26:41;101600.97;;;1.00;78.57
57668;BME280;43499;52.366;12.912;2023-04-07T04:27:45;101589.66;;;1.00;78.58
57668;BME280;43499;52.366;12.912;2023-04-07T04:28:54;101600.63;;;1.04;78.87
57668;BME280;43499;52.366;12.912;2023-04-07T04:29:56;101591.75;;;1.02;78.32
57668;BME280;43499;52.366;12.912;2023-04-07T04:31:07;101598.25;;;1.06;78.07
57668;BME280;43499;52.366;12.912;2023-04-07T04:32:13;101601.25;;;1.09;78.27
57668;BME280;43499;52.366;12.912;2023-04-07T04:33:17;101600.25;;;1.01;78.01
57668;BME280;43499;52.366;12.912;2023-04-07T04:34:26;101594.13;;;1.01;78.51
57668;BME280;43499;52.366;12.912;2023-04-07T04:35:29;101595.97;;;1.02;78.51
57668;BME280;43499;52.366;12.912;2023-04-07T04:36:41;101598.56;;;1.02;78.74
57668;BME280;43499;52.366;12.912;2023-04-07T04:37:42;101595.06;;;1.01;78.44
57668;BME280;43499;52.366;12.912;2023-04-07T04:38:45;101594.84;;;1.00;78.50
57668;BME280;43499;52.366;12.912;2023-04-07T04:39:50;101595.25;;;1.03;78.38
57668;BME280;43499;52.366;12.912;2023-04-07T04:40:55;101598.44;;;1.07;78.57
57668;BME280;43499;52.366;12.912;2023-04-07T04:42:01;101589.16;;;1.02;78.69
57668;BME280;43499;52.366;12.912;2023-04-07T04:43:08;101607.16;;;1.08;79.38
57668;BME280;43499;52.366;12.912;2023-04-07T04:44:11;101595.84;;;1.07;78.87
57668;BME280;43499;52.366;12.912;2023-04-07T04:45:15;101591.75;;;1.02;78.99
57668;BME280;43499;52.366;12.912;2023-04-07T04:46:20;101605.50;;;1.08;79.09
57668;BME280;43499;52.366;12.912;2023-04-07T04:47:22;101601.03;;;1.07;78.77
57668;BME280;43499;52.366;12.912;2023-04-07T04:48:23;101599.41;;;1.08;78.58
57668;BME280;43499;52.366;12.912;2023-04-07T04:49:24;101579.53;;;1.01;78.44
57668;BME280;43499;52.366;12.912;2023-04-07T04:50:26;101593.38;;;1.15;78.45
57668;BME280;43499;52.366;12.912;2023-04-07T04:51:27;101608.78;;;1.20;77.84
57668;BME280;43499;52.366;12.912;2023-04-07T04:52:35;101594.47;;;1.17;78.09
57668;BME280;43499;52.366;12.912;2023-04-07T04:53:36;101575.75;;;1.12;78.19
57668;BME280;43499;52.366;12.912;2023-04-07T04:54:37;101577.84;;;1.15;77.66
57668;BME280;43499;52.366;12.912;2023-04-07T04:55:38;101603.16;;;1.30;77.30
57668;BME280;43499;52.366;12.912;2023-04-07T04:56:41;101603.16;;;1.30;77.70
57668;BME280;43499;52.366;12.912;2023-04-07T04:57:43;101586.09;;;1.25;77.54
57668;BME280;43499;52.366;12.912;2023-04-07T04:58:46;101600.25;;;1.34;77.72
57668;BME280;43499;52.366;12.912;2023-04-07T04:59:59;101586.47;;;1.28;78.13
57668;BME280;43499;52.366;12.912;2023-04-07T05:01:00;101595.59;;;1.32;77.57
57668;BME280;43499;52.366;12.912;2023-04-07T05:02:09;101599.16;;;1.39;77.74
57668;BME280;43499;52.366;12.912;2023-04-07T05:03:11;101594.53;;;1.37;77.42
57668;BME280;43499;52.366;12.912;2023-04-07T05:04:15;101609.63;;;1.47;77.80
57668;BME280;43499;52.366;12.912;2023-04-07T05:05:23;101588.50;;;1.44;77.89
57668;BME280;43499;52.366;12.912;2023-04-07T05:06:25;101598.59;;;1.55;77.63
57668;BME280;43499;52.366;12.912;2023-04-07T05:07:30;101606.78;;;1.58;77.76
57668;BME280;43499;52.366;12.912;2023-04-07T05:08:31;101590.09;;;1.56;77.76
57668;BME280;43499;52.366;12.912;2023-04-07T05:09:33;101575.59;;;1.51;77.49
57668;BME280;43499;52.366;12.912;2023-04-07T05:10:37;101604.13;;;1.71;77.31
57668;BME280;43499;52.366;12.912;2023-04-07T05:11:40;101581.66;;;1.64;77.15
57668;BME280;43499;52.366;12.912;2023-04-07T05:12:41;101599.34;;;1.74;77.44
57668;BME280;43499;52.366;12.912;2023-04-07T05:13:42;101592.09;;;1.72;76.02
57668;BME280;43499;52.366;12.912;2023-04-07T05:14:43;101598.06;;;1.78;76.17
57668;BME280;43499;52.366;12.912;2023-04-07T05:15:44;101591.44;;;1.80;75.79
57668;BME280;43499;52.366;12.912;2023-04-07T05:16:47;101606.53;;;1.90;76.04
57668;BME280;43499;52.366;12.912;2023-04-07T05:17:53;101609.31;;;1.91;75.97
57668;BME280;43499;52.366;12.912;2023-04-07T05:18:58;101608.44;;;1.98;75.91
57668;BME280;43499;52.366;12.912;2023-04-07T05:20:00;101608.09;;;2.02;75.70
57668;BME280;43499;52.366;12.912;2023-04-07T05:21:09;101609.63;;;2.07;74.86
57668;BME280;43499;52.366;12.912;2023-04-07T05:22:11;101604.03;;;2.04;74.13
57668;BME280;43499;52.366;12.912;2023-04-07T05:23:19;101615.59;;;2.13;74.15
57668;BME280;43499;52.366;12.912;2023-04-07T05:24:25;101623.84;;;2.24;74.21
57668;BME280;43499;52.366;12.912;2023-04-07T05:25:29;101604.56;;;2.22;74.00
57668;BME280;43499;52.366;12.912;2023-04-07T05:26:34;101623.88;;;2.31;74.41
57668;BME280;43499;52.366;12.912;2023-04-07T05:27:38;101619.47;;;2.37;74.21
57668;BME280;43499;52.366;12.912;2023-04-07T05:28:44;101616.22;;;2.45;74.03
57668;BME280;43499;52.366;12.912;2023-04-07T05:29:51;101604.16;;;2.46;73.09
57668;BME280;43499;52.366;12.912;2023-04-07T05:30:58;101617.41;;;2.62;72.75
57668;BME280;43499;52.366;12.912;2023-04-07T05:32:04;101595.31;;;2.51;71.93
57668;BME280;43499;52.366;12.912;2023-04-07T05:33:06;101608.34;;;2.66;71.82
57668;BME280;43499;52.366;12.912;2023-04-07T05:34:17;101613.22;;;2.77;71.22
57668;BME280;43499;52.366;12.912;2023-04-07T05:35:24;101603.44;;;2.82;71.33
57668;BME280;43499;52.366;12.912;2023-04-07T05:36:29;101616.13;;;3.00;70.92
57668;BME280;43499;52.366;12.912;2023-04-07T05:37:32;101613.75;;;3.09;70.35
57668;BME280;43499;52.366;12.912;2023-04-07T05:38:36;101611.59;;;3.27;69.97